Time;durP1;ratioP1;P1;durP2;ratioP2;P2;SDS_P1;SDS_P2;PMS_P1;PMS_P2;Temp;Humidity;BMP_temperature;BMP_pressure;BME280_temperature;BME280_humidity;BME280_pressure;Samples;Min_cycle;Max_cycle;Signal;HPM_P1;HPM_P2
2021/05/08 00:01:38;;;;;;;1.60;0.70;;;18.90;54.60;;;;;;5135064;28;20458;-39
2021/05/08 00:04:08;;;;;;;1.03;0.70;;;18.90;53.20;;;;;;5133024;28;20415;-41
2021/05/08 00:06:39;;;;;;;0.90;0.63;;;18.80;51.60;;;;;;5142387;28;20536;-40
2021/05/08 00:09:09;;;;;;;1.60;0.83;;;18.90;51.60;;;;;;5142778;28;20453;-40
2021/05/08 00:11:40;;;;;;;2.20;0.70;;;19.00;52.30;;;;;;5142224;28;20444;-43
2021/05/08 00:14:10;;;;;;;0.70;0.70;;;19.20;50.80;;;;;;5142916;28;20445;-40
2021/05/08 00:16:40;;;;;;;0.80;0.80;;;19.10;51.20;;;;;;5141559;28;20551;-38
2021/05/08 00:19:11;;;;;;;0.87;0.60;;;19.00;51.10;;;;;;5140896;27;20957;-40
2021/05/08 00:21:42;;;;;;;1.47;1.00;;;19.10;51.50;;;;;;5129922;28;20448;-41
2021/05/08 00:24:12;;;;;;;3.00;1.20;;;18.90;52.30;;;;;;5130494;28;20453;-41
2021/05/08 00:26:42;;;;;;;1.17;0.63;;;18.50;52.90;;;;;;5130622;28;20516;-40
2021/05/08 00:29:12;;;;;;;0.93;0.80;;;18.40;53.40;;;;;;5135100;28;20487;-41
2021/05/08 00:31:42;;;;;;;1.57;0.57;;;18.30;53.50;;;;;;5131466;27;20506;-41
2021/05/08 00:34:12;;;;;;;0.47;0.47;;;18.40;52.90;;;;;;5143873;27;20565;-41
2021/05/08 00:36:44;;;;;;;1.10;1.00;;;18.30;51.50;;;;;;5135115;27;20489;-40
2021/05/08 00:39:14;;;;;;;2.53;1.17;;;18.20;52.00;;;;;;5139407;27;20478;-40
2021/05/08 00:41:44;;;;;;;0.83;0.70;;;18.10;52.70;;;;;;5132152;27;20511;-40
2021/05/08 00:44:15;;;;;;;3.50;0.80;;;18.00;53.00;;;;;;5132342;27;20541;-41
2021/05/08 00:46:45;;;;;;;1.03;0.77;;;17.40;54.10;;;;;;5132247;27;20461;-42
2021/05/08 00:49:16;;;;;;;1.27;0.87;;;17.10;56.10;;;;;;5129580;27;20465;-41
2021/05/08 00:51:47;;;;;;;1.60;0.90;;;17.10;56.60;;;;;;5134209;27;20448;-40
2021/05/08 00:54:17;;;;;;;1.93;0.87;;;16.80;56.60;;;;;;5131567;27;20457;-40
2021/05/08 00:56:48;;;;;;;0.90;0.80;;;16.50;57.10;;;;;;5139235;27;20455;-42
2021/05/08 00:59:18;;;;;;;2.03;0.70;;;16.30;58.90;;;;;;5136502;27;20448;-41
2021/05/08 01:01:48;;;;;;;1.70;1.10;;;16.20;57.40;;;;;;5142221;27;20538;-41
2021/05/08 01:04:18;;;;;;;1.13;1.00;;;16.10;57.90;;;;;;5143162;27;20540;-41
2021/05/08 01:06:49;;;;;;;1.77;1.00;;;16.10;57.30;;;;;;5133112;27;20598;-41
2021/05/08 01:09:21;;;;;;;1.83;0.90;;;16.20;56.00;;;;;;5138926;27;20453;-40
2021/05/08 01:11:51;;;;;;;1.10;1.00;;;16.20;56.00;;;;;;5133535;27;20460;-40
2021/05/08 01:14:22;;;;;;;1.13;0.80;;;16.30;56.90;;;;;;5133344;27;20528;-41
2021/05/08 01:16:53;;;;;;;3.77;3.47;;;16.40;54.70;;;;;;5136352;27;20533;-40
2021/05/08 01:19:27;;;;;;;4.07;2.13;;;16.50;55.10;;;;;;5134580;27;20511;-37
2021/05/08 01:21:58;;;;;;;2.67;1.60;;;16.40;53.20;;;;;;5129395;27;20879;-38
2021/05/08 01:24:28;;;;;;;2.07;1.87;;;16.20;52.30;;;;;;5135605;27;20929;-39
2021/05/08 01:26:58;;;;;;;2.93;1.70;;;16.00;53.50;;;;;;5134581;27;20450;-39
2021/05/08 01:29:28;;;;;;;1.27;1.00;;;16.10;53.70;;;;;;5137197;27;20425;-39
2021/05/08 01:31:58;;;;;;;1.63;1.10;;;16.00;53.80;;;;;;5132013;27;20528;-39
2021/05/08 01:34:28;;;;;;;1.50;1.27;;;16.10;54.00;;;;;;5130507;27;20518;-39
2021/05/08 01:36:59;;;;;;;2.00;1.30;;;16.00;54.40;;;;;;5129187;27;20513;-36
2021/05/08 01:39:30;;;;;;;1.20;1.20;;;16.00;53.20;;;;;;5128843;27;20560;-39
2021/05/08 01:42:00;;;;;;;1.03;0.93;;;15.80;52.20;;;;;;5131389;27;20464;-37
2021/05/08 01:44:30;;;;;;;1.50;0.90;;;15.70;53.20;;;;;;5128444;27;20962;-37
2021/05/08 01:47:00;;;;;;;1.73;1.00;;;15.60;53.70;;;;;;5127603;27;20457;-35
2021/05/08 01:49:30;;;;;;;2.20;1.47;;;15.50;55.60;;;;;;5128713;27;20457;-38
2021/05/08 01:52:01;;;;;;;1.43;0.90;;;15.40;56.00;;;;;;5129716;27;20458;-37
2021/05/08 01:54:31;;;;;;;1.10;1.00;;;15.30;56.40;;;;;;5136611;27;20537;-39
2021/05/08 01:57:01;;;;;;;1.43;0.80;;;15.20;58.30;;;;;;5125669;28;21101;-38
2021/05/08 01:59:31;;;;;;;1.60;1.07;;;15.10;57.80;;;;;;5126047;27;20515;-39
2021/05/08 02:02:01;;;;;;;1.60;1.17;;;15.00;58.60;;;;;;5124828;27;20820;-38
2021/05/08 02:04:31;;;;;;;1.97;1.10;;;14.90;59.20;;;;;;5140375;27;20450;-35
2021/05/08 02:07:02;;;;;;;1.70;1.13;;;14.90;59.10;;;;;;5125125;27;20502;-39
2021/05/08 02:09:32;;;;;;;1.27;1.17;;;14.80;58.80;;;;;;5141952;27;20525;-37
2021/05/08 02:12:02;;;;;;;1.20;1.10;;;14.70;59.60;;;;;;5144068;27;20449;-35
2021/05/08 02:14:32;;;;;;;2.43;1.10;;;14.60;58.70;;;;;;5145221;27;20494;-35
2021/05/08 02:17:02;;;;;;;3.37;1.10;;;14.60;59.10;;;;;;5144683;27;20505;-38
2021/05/08 02:19:32;;;;;;;2.87;1.30;;;14.50;58.40;;;;;;5145082;27;20460;-38
2021/05/08 02:22:03;;;;;;;2.97;1.43;;;14.50;59.90;;;;;;5143993;27;20463;-37
2021/05/08 02:24:33;;;;;;;2.47;1.20;;;14.40;62.50;;;;;;5144707;27;20494;-37
2021/05/08 02:27:03;;;;;;;2.83;1.40;;;14.20;65.50;;;;;;5144332;27;20437;-35
2021/05/08 02:29:33;;;;;;;2.90;2.70;;;14.00;67.40;;;;;;5145036;27;20448;-37
2021/05/08 02:32:03;;;;;;;2.20;1.53;;;13.80;69.00;;;;;;5144131;27;20482;-36
2021/05/08 02:34:33;;;;;;;4.97;1.90;;;13.70;70.40;;;;;;5143833;27;20492;-35
2021/05/08 02:37:04;;;;;;;2.00;1.73;;;13.60;71.00;;;;;;5144467;27;20460;-33
2021/05/08 02:39:34;;;;;;;2.20;1.60;;;13.50;71.20;;;;;;5136193;27;20513;-38
2021/05/08 02:42:04;;;;;;;1.77;1.17;;;13.30;72.40;;;;;;5143533;27;20520;-36
2021/05/08 02:44:35;;;;;;;2.97;1.37;;;13.20;73.50;;;;;;5144529;27;20629;-37
2021/05/08 02:47:16;;;;;;;4.77;1.67;;;13.10;74.30;;;;;;5144405;27;20518;-38
2021/05/08 02:49:47;;;;;;;1.50;1.40;;;13.00;75.80;;;;;;5145104;27;20532;-37
2021/05/08 02:52:19;;;;;;;2.13;1.20;;;12.90;76.50;;;;;;5143974;27;20456;-37
2021/05/08 02:54:49;;;;;;;1.57;1.20;;;12.90;77.10;;;;;;5144869;27;20447;-36
2021/05/08 02:57:19;;;;;;;3.40;1.20;;;12.80;77.10;;;;;;5143766;27;20485;-38
2021/05/08 02:59:49;;;;;;;3.67;1.30;;;12.70;78.10;;;;;;5144886;27;20464;-37
2021/05/08 03:02:19;;;;;;;1.90;1.33;;;12.70;78.40;;;;;;5143281;27;20457;-38
2021/05/08 03:04:50;;;;;;;2.10;1.47;;;12.60;79.00;;;;;;5143776;27;20786;-38
2021/05/08 03:07:21;;;;;;;2.00;1.60;;;12.60;79.40;;;;;;5144157;27;20456;-36
2021/05/08 03:09:52;;;;;;;1.93;1.50;;;12.60;80.70;;;;;;5144958;27;20610;-38
2021/05/08 03:12:22;;;;;;;1.50;1.40;;;12.50;80.80;;;;;;5143051;27;20460;-37
2021/05/08 03:14:53;;;;;;;2.73;1.40;;;12.50;81.20;;;;;;5144023;27;20449;-38
2021/05/08 03:17:23;;;;;;;2.10;1.20;;;12.50;82.40;;;;;;5144034;27;20536;-39
2021/05/08 03:19:53;;;;;;;2.13;1.17;;;12.40;82.60;;;;;;5144272;27;20207;-36
2021/05/08 03:22:24;;;;;;;2.10;1.37;;;12.30;83.20;;;;;;5143693;27;20924;-37
2021/05/08 03:24:55;;;;;;;2.00;1.50;;;12.30;83.20;;;;;;5144152;28;20452;-37
2021/05/08 03:27:25;;;;;;;1.70;1.30;;;12.20;84.50;;;;;;5135781;28;20453;-37
2021/05/08 03:29:55;;;;;;;3.20;1.30;;;12.20;83.90;;;;;;5141215;28;20215;-37
2021/05/08 03:32:25;;;;;;;1.98;1.15;;;12.20;85.50;;;;;;5128565;28;20226;-38
2021/05/08 03:34:56;;;;;;;2.70;1.70;;;12.20;84.90;;;;;;5143395;28;20218;-38
2021/05/08 03:37:27;;;;;;;4.30;1.60;;;12.20;86.10;;;;;;5142219;28;20494;-36
2021/05/08 03:39:59;;;;;;;1.70;1.50;;;12.10;87.10;;;;;;5141928;28;20449;-39
2021/05/08 03:42:29;;;;;;;3.63;1.73;;;12.00;87.30;;;;;;5141835;28;20453;-38
2021/05/08 03:44:59;;;;;;;2.63;1.23;;;12.00;87.70;;;;;;5142811;28;20584;-36
2021/05/08 03:47:29;;;;;;;1.60;1.50;;;12.00;88.60;;;;;;5141506;28;20283;-37
2021/05/08 03:50:00;;;;;;;4.43;1.63;;;11.90;90.00;;;;;;5141798;28;20505;-35
2021/05/08 03:52:33;;;;;;;2.53;1.58;;;11.80;90.60;;;;;;5142115;28;20195;-35
2021/05/08 03:55:03;;;;;;;2.55;1.65;;;11.80;90.70;;;;;;5143587;28;20203;-37
2021/05/08 03:57:33;;;;;;;1.50;1.40;;;11.80;91.20;;;;;;5140574;28;20556;-37
2021/05/08 04:00:04;;;;;;;3.95;1.60;;;11.70;91.10;;;;;;5142198;28;20202;-36
2021/05/08 04:02:34;;;;;;;1.80;1.50;;;11.60;90.90;;;;;;5142207;28;20199;-38
2021/05/08 04:05:04;;;;;;;1.70;1.52;;;11.50;90.40;;;;;;5143898;28;20192;-35
2021/05/08 04:07:35;;;;;;;2.10;1.50;;;11.50;90.40;;;;;;5146313;27;20219;-38
2021/05/08 04:10:05;;;;;;;2.85;1.58;;;11.50;90.20;;;;;;5148400;27;20207;-35
2021/05/08 04:12:35;;;;;;;2.25;1.55;;;11.50;90.40;;;;;;5145639;27;20263;-36
2021/05/08 04:15:06;;;;;;;2.38;1.90;;;11.40;90.40;;;;;;5147479;27;20244;-36
2021/05/08 04:17:36;;;;;;;1.60;1.50;;;11.40;90.30;;;;;;5144666;27;20818;-39
2021/05/08 04:20:07;;;;;;;1.85;1.60;;;11.30;90.30;;;;;;5147488;27;20295;-39
2021/05/08 04:22:38;;;;;;;2.13;1.75;;;11.30;90.20;;;;;;5147071;27;20199;-34
2021/05/08 04:25:09;;;;;;;1.80;1.70;;;11.20;90.40;;;;;;5147656;27;20630;-37
2021/05/08 04:27:39;;;;;;;2.90;1.50;;;11.20;90.40;;;;;;5146154;27;20214;-35
2021/05/08 04:30:10;;;;;;;1.50;1.35;;;11.10;91.20;;;;;;5146606;27;20271;-35
2021/05/08 04:32:40;;;;;;;1.45;1.35;;;11.10;91.30;;;;;;5129908;27;20252;-38
2021/05/08 04:35:10;;;;;;;1.40;1.30;;;11.00;91.40;;;;;;5146913;27;20203;-38
2021/05/08 04:37:41;;;;;;;1.48;1.38;;;11.00;91.90;;;;;;5143548;27;20659;-37
2021/05/08 04:40:13;;;;;;;1.88;1.70;;;10.90;92.30;;;;;;5142899;27;20210;-33
2021/05/08 04:42:44;;;;;;;1.65;1.55;;;10.90;92.70;;;;;;5145617;27;20199;-37
2021/05/08 04:45:14;;;;;;;3.10;1.67;;;10.90;93.20;;;;;;5146925;27;20267;-36
2021/05/08 04:47:44;;;;;;;2.13;1.75;;;10.80;93.60;;;;;;5146831;27;20191;-37
2021/05/08 04:50:15;;;;;;;1.75;1.60;;;10.80;94.20;;;;;;5146759;27;20197;-36
2021/05/08 04:52:46;;;;;;;1.85;1.75;;;10.80;93.80;;;;;;5145367;27;20199;-39
2021/05/08 04:55:16;;;;;;;3.50;1.75;;;10.70;94.00;;;;;;5143622;27;20195;-38
2021/05/08 04:57:46;;;;;;;2.47;1.52;;;10.60;94.60;;;;;;5144916;27;20223;-34
2021/05/08 05:00:18;;;;;;;2.38;1.80;;;10.60;95.10;;;;;;5146591;27;20252;-38
2021/05/08 05:02:49;;;;;;;3.90;1.50;;;10.60;94.70;;;;;;5145713;27;20654;-36
2021/05/08 05:05:21;;;;;;;1.65;1.55;;;10.60;94.90;;;;;;5145421;27;20549;-36
2021/05/08 05:07:52;;;;;;;1.83;1.70;;;10.50;95.00;;;;;;5145684;27;20195;-35
2021/05/08 05:10:23;;;;;;;5.22;2.20;;;10.50;95.50;;;;;;5146897;27;20578;-36
2021/05/08 05:12:59;;;;;;;2.47;1.88;;;10.40;95.80;;;;;;5145211;27;20213;-35
2021/05/08 05:15:30;;;;;;;4.32;2.10;;;10.40;96.30;;;;;;5146564;27;20199;-38
2021/05/08 05:17:59;;;;;;;2.20;1.63;;;10.30;96.90;;;;;;5144766;27;20284;-32
2021/05/08 05:20:30;;;;;;;2.97;2.75;;;10.30;96.90;;;;;;5146007;27;20203;-38
2021/05/08 05:23:01;;;;;;;2.13;1.70;;;10.20;97.50;;;;;;5144674;27;20394;-37
2021/05/08 05:25:31;;;;;;;2.30;1.65;;;10.20;97.50;;;;;;5130388;27;20203;-36
2021/05/08 05:28:01;;;;;;;2.70;1.92;;;10.10;97.90;;;;;;5144885;27;20251;-37
2021/05/08 05:30:31;;;;;;;3.30;1.60;;;10.20;98.80;;;;;;5145383;27;20199;-37
2021/05/08 05:33:01;;;;;;;4.88;2.42;;;10.20;98.90;;;;;;5145516;27;20646;-38
2021/05/08 05:35:31;;;;;;;2.75;2.03;;;10.10;99.40;;;;;;5128284;27;20227;-36
2021/05/08 05:38:02;;;;;;;3.75;1.88;;;10.00;99.70;;;;;;5139434;27;20535;-39
2021/05/08 05:40:35;;;;;;;2.17;1.98;;;10.00;99.30;;;;;;5141371;27;20202;-39
2021/05/08 05:43:06;;;;;;;2.80;2.20;;;10.00;99.90;;;;;;5144337;27;20235;-37
2021/05/08 05:45:36;;;;;;;3.65;1.85;;;9.90;99.90;;;;;;5146081;27;20188;-39
2021/05/08 05:48:07;;;;;;;3.58;1.88;;;10.00;99.90;;;;;;5146014;27;20184;-36
2021/05/08 05:50:42;;;;;;;3.60;2.47;;;9.90;99.90;;;;;;5146024;27;20200;-37
2021/05/08 05:53:14;;;;;;;4.55;2.78;;;9.90;99.90;;;;;;5144861;27;20281;-37
2021/05/08 05:55:44;;;;;;;3.67;1.80;;;9.90;99.90;;;;;;5145615;27;20248;-34
2021/05/08 05:58:14;;;;;;;2.08;1.95;;;9.80;99.90;;;;;;5144333;27;20253;-38
2021/05/08 06:00:44;;;;;;;4.25;2.53;;;9.70;99.90;;;;;;5145398;27;20240;-36
2021/05/08 06:03:14;;;;;;;5.50;2.08;;;9.70;99.90;;;;;;5143754;27;20321;-37
2021/05/08 06:05:44;;;;;;;1.95;1.80;;;9.80;99.90;;;;;;5141556;27;20192;-35
2021/05/08 06:08:15;;;;;;;2.40;2.25;;;9.80;99.90;;;;;;5144920;27;20260;-35
2021/05/08 06:10:45;;;;;;;5.47;2.80;;;9.70;99.90;;;;;;5145135;27;20203;-35
2021/05/08 06:13:15;;;;;;;3.65;1.98;;;9.60;99.90;;;;;;5142858;27;20195;-34
2021/05/08 06:15:46;;;;;;;2.45;1.92;;;9.60;99.90;;;;;;5145106;27;20203;-38
2021/05/08 06:18:16;;;;;;;4.05;2.40;;;9.50;99.90;;;;;;5141396;27;20226;-35
2021/05/08 06:20:47;;;;;;;5.75;2.15;;;9.50;99.90;;;;;;5143904;27;20282;-38
2021/05/08 06:23:18;;;;;;;2.78;1.90;;;9.40;99.90;;;;;;5143264;27;20249;-34
2021/05/08 06:25:48;;;;;;;2.47;2.05;;;9.30;99.90;;;;;;5143116;27;20676;-37
2021/05/08 06:28:18;;;;;;;2.70;2.45;;;9.30;99.90;;;;;;5142748;27;20256;-34
2021/05/08 06:30:48;;;;;;;3.13;2.60;;;9.20;99.90;;;;;;5144680;27;20240;-34
2021/05/08 06:33:18;;;;;;;5.13;2.20;;;9.20;99.90;;;;;;5143200;27;20195;-38
2021/05/08 06:35:48;;;;;;;4.03;2.22;;;9.20;99.90;;;;;;5144386;27;20199;-38
2021/05/08 06:38:19;;;;;;;2.50;2.30;;;9.20;99.90;;;;;;5139859;27;20252;-36
2021/05/08 06:40:49;;;;;;;2.80;2.30;;;9.10;99.90;;;;;;5143656;27;20203;-35
2021/05/08 06:43:20;;;;;;;4.63;3.17;;;9.00;99.90;;;;;;5143963;27;20673;-33
2021/05/08 06:45:50;;;;;;;4.15;3.00;;;9.00;99.90;;;;;;5144283;27;20252;-34
2021/05/08 06:48:20;;;;;;;5.43;2.83;;;9.00;99.90;;;;;;5144053;27;20247;-36
2021/05/08 06:50:50;;;;;;;9.07;3.47;;;9.00;99.90;;;;;;5143892;27;20207;-37
2021/05/08 06:53:21;;;;;;;6.15;2.83;;;8.90;99.90;;;;;;5144305;27;20233;-37
2021/05/08 06:55:51;;;;;;;5.03;2.90;;;8.80;99.90;;;;;;5143170;27;20237;-38
2021/05/08 06:58:21;;;;;;;4.43;2.95;;;8.80;99.90;;;;;;5141728;27;20223;-37
2021/05/08 07:00:51;;;;;;;5.55;3.00;;;8.70;99.90;;;;;;5141932;27;20203;-36
2021/05/08 07:03:21;;;;;;;3.80;2.95;;;8.60;99.90;;;;;;5132060;27;20199;-37
2021/05/08 07:05:51;;;;;;;3.88;3.45;;;8.60;99.90;;;;;;5143414;27;20199;-38
2021/05/08 07:08:22;;;;;;;3.80;3.28;;;8.60;99.90;;;;;;5144262;27;20198;-36
2021/05/08 07:10:53;;;;;;;5.90;3.83;;;8.70;99.90;;;;;;5144280;27;20268;-34
2021/05/08 07:13:23;;;;;;;4.63;3.67;;;8.70;99.90;;;;;;5143067;27;20195;-36
2021/05/08 07:15:56;;;;;;;4.88;3.88;;;8.60;99.90;;;;;;5143594;27;20199;-34
2021/05/08 07:18:26;;;;;;;6.18;3.58;;;8.60;99.90;;;;;;5143039;27;20320;-34
2021/05/08 07:20:57;;;;;;;5.75;3.30;;;8.50;99.90;;;;;;5143341;27;20279;-34
2021/05/08 07:23:28;;;;;;;3.53;2.83;;;8.50;99.90;;;;;;5130593;27;20207;-35
2021/05/08 07:25:58;;;;;;;3.10;2.80;;;8.50;99.90;;;;;;5143948;27;20199;-34
2021/05/08 07:28:28;;;;;;;5.32;4.38;;;8.40;99.90;;;;;;5142969;28;20248;-35
2021/05/08 07:30:58;;;;;;;5.07;3.15;;;8.20;99.90;;;;;;5143821;28;20669;-38
2021/05/08 07:33:28;;;;;;;6.97;3.53;;;8.10;99.90;;;;;;5136243;28;20252;-33
2021/05/08 07:35:57;;;;;;;6.82;3.15;;;8.10;99.90;;;;;;5143621;28;20199;-34
2021/05/08 07:38:29;;;;;;;5.30;2.92;;;8.10;99.90;;;;;;5133592;28;20216;-34
2021/05/08 07:40:59;;;;;;;3.63;3.33;;;8.20;99.90;;;;;;5141024;27;20191;-36
2021/05/08 07:43:30;;;;;;;6.13;4.07;;;8.10;99.90;;;;;;5145976;27;20287;-34
2021/05/08 07:45:59;;;;;;;5.13;3.58;;;8.10;99.90;;;;;;5135342;27;20228;-32
2021/05/08 07:48:30;;;;;;;3.78;3.10;;;8.10;99.90;;;;;;5147234;27;20258;-35
2021/05/08 07:51:00;;;;;;;3.78;3.20;;;8.10;99.90;;;;;;5147939;27;20213;-34
2021/05/08 07:53:31;;;;;;;3.15;2.42;;;8.00;99.90;;;;;;5147923;27;20213;-38
2021/05/08 07:56:01;;;;;;;5.20;3.50;;;8.00;99.90;;;;;;5147371;27;20263;-36
2021/05/08 07:58:31;;;;;;;3.80;2.72;;;8.00;99.90;;;;;;5147036;27;20222;-37
2021/05/08 08:01:01;;;;;;;4.57;3.80;;;8.00;99.90;;;;;;5130835;27;20199;-34
2021/05/08 08:03:31;;;;;;;4.45;3.10;;;7.90;99.90;;;;;;5146869;27;20215;-34
2021/05/08 08:06:01;;;;;;;4.13;3.72;;;7.90;99.90;;;;;;5147262;27;20188;-36
2021/05/08 08:08:32;;;;;;;4.05;3.75;;;7.80;99.90;;;;;;5147337;27;20267;-36
2021/05/08 08:11:02;;;;;;;3.97;2.85;;;7.80;99.90;;;;;;5146871;27;20240;-35
2021/05/08 08:13:32;;;;;;;4.38;3.50;;;7.80;99.90;;;;;;5146561;27;20192;-35
2021/05/08 08:16:01;;;;;;;5.53;3.67;;;7.70;99.90;;;;;;5146900;27;20199;-36
2021/05/08 08:18:31;;;;;;;4.70;3.13;;;7.60;99.90;;;;;;5147187;27;20223;-36
2021/05/08 08:21:01;;;;;;;4.85;3.47;;;7.60;99.90;;;;;;5146889;27;20195;-35
2021/05/08 08:23:32;;;;;;;5.40;3.20;;;7.60;99.90;;;;;;5147498;27;20230;-35
2021/05/08 08:26:02;;;;;;;3.70;3.40;;;7.60;99.90;;;;;;5145673;27;20204;-37
2021/05/08 08:28:32;;;;;;;4.38;3.97;;;7.60;99.90;;;;;;5146522;27;20240;-32
2021/05/08 08:31:02;;;;;;;5.30;4.57;;;7.60;99.90;;;;;;5146599;27;20207;-36
2021/05/08 08:33:32;;;;;;;6.13;5.10;;;7.60;99.90;;;;;;5136567;27;20216;-31
2021/05/08 08:36:02;;;;;;;5.50;4.95;;;7.60;99.90;;;;;;5147511;27;20188;-35
2021/05/08 08:38:33;;;;;;;5.85;4.40;;;7.70;99.90;;;;;;5142695;27;20222;-34
2021/05/08 08:41:03;;;;;;;6.70;4.55;;;7.80;99.90;;;;;;5146741;27;20196;-36
2021/05/08 08:43:34;;;;;;;6.75;5.13;;;7.80;99.90;;;;;;5145630;27;20231;-33
2021/05/08 08:46:05;;;;;;;5.43;4.65;;;7.80;99.90;;;;;;5146809;27;20274;-36
2021/05/08 08:48:34;;;;;;;5.70;5.20;;;7.90;99.90;;;;;;5146551;27;20191;-34
2021/05/08 08:51:05;;;;;;;10.23;4.95;;;8.00;99.90;;;;;;5146362;27;20240;-33
2021/05/08 08:53:37;;;;;;;7.55;5.53;;;8.00;99.90;;;;;;5146558;27;20195;-34
2021/05/08 08:56:07;;;;;;;7.18;4.30;;;8.10;99.90;;;;;;5146657;27;20705;-34
2021/05/08 08:58:42;;;;;;;4.85;4.45;;;8.10;99.90;;;;;;5145092;27;20223;-33
2021/05/08 09:01:13;;;;;;;6.80;5.00;;;8.10;99.90;;;;;;5145957;27;20199;-36
2021/05/08 09:03:43;;;;;;;6.90;5.68;;;8.10;99.90;;;;;;5141735;27;20207;-38
2021/05/08 09:06:14;;;;;;;8.85;6.20;;;8.00;99.90;;;;;;5146278;27;20195;-35
2021/05/08 09:08:45;;;;;;;8.70;5.57;;;7.90;99.90;;;;;;5146463;27;20267;-37
2021/05/08 09:11:20;;;;;;;6.38;5.38;;;7.90;99.90;;;;;;5145633;27;20221;-33
2021/05/08 09:13:51;;;;;;;6.80;5.13;;;7.90;99.90;;;;;;5145921;27;20203;-37
2021/05/08 09:16:21;;;;;;;7.85;5.47;;;7.80;99.90;;;;;;5145352;27;20199;-34
2021/05/08 09:18:51;;;;;;;5.70;5.25;;;7.70;99.90;;;;;;5146320;27;20260;-34
2021/05/08 09:21:29;;;;;;;8.32;4.90;;;7.60;99.90;;;;;;5146170;27;20196;-35
2021/05/08 09:24:02;;;;;;;7.32;4.85;;;7.70;99.90;;;;;;5140662;27;20294;-36
2021/05/08 09:26:39;;;;;;;7.75;5.22;;;7.60;99.90;;;;;;5144466;27;20199;-37
2021/05/08 09:29:18;;;;;;;4.82;4.43;;;7.50;99.90;;;;;;5146609;27;20195;-37
2021/05/08 09:31:56;;;;;;;5.32;4.82;;;7.50;99.90;;;;;;5145648;27;20199;-36
2021/05/08 09:34:27;;;;;;;5.28;4.75;;;7.50;99.90;;;;;;5145108;27;20608;-36
2021/05/08 09:36:59;;;;;;;5.53;4.97;;;7.50;99.90;;;;;;5145599;27;20207;-33
2021/05/08 09:39:32;;;;;;;9.10;4.63;;;7.40;99.90;;;;;;5138659;27;20701;-33
2021/05/08 09:42:02;;;;;;;5.72;5.13;;;7.40;99.90;;;;;;5144894;27;20221;-37
2021/05/08 09:44:33;;;;;;;6.60;6.00;;;7.40;99.90;;;;;;5145935;27;20231;-36
2021/05/08 09:47:03;;;;;;;5.90;4.45;;;7.40;99.90;;;;;;5145246;27;20229;-34
2021/05/08 09:49:33;;;;;;;4.45;4.10;;;7.40;99.90;;;;;;5145803;27;20214;-35
2021/05/08 09:52:03;;;;;;;7.78;5.55;;;7.40;99.90;;;;;;5145925;27;20195;-36
2021/05/08 09:54:34;;;;;;;5.55;4.45;;;7.50;99.90;;;;;;5145395;27;20317;-36
2021/05/08 09:57:19;;;;;;;4.88;4.47;;;7.50;99.90;;;;;;5144609;27;20621;-36
2021/05/08 09:59:49;;;;;;;4.30;4.00;;;7.50;99.90;;;;;;5145220;27;20215;-35
2021/05/08 10:02:19;;;;;;;6.50;3.85;;;7.50;99.90;;;;;;5144493;27;20529;-36
2021/05/08 10:05:16;;;;;;;4.38;3.97;;;7.50;99.90;;;;;;5144670;27;20227;-36
2021/05/08 10:07:45;;;;;;;6.93;3.80;;;7.50;99.90;;;;;;5144586;27;20203;-38
2021/05/08 10:10:18;;;;;;;4.40;3.70;;;7.50;99.90;;;;;;5145779;27;20191;-37
2021/05/08 10:12:48;;;;;;;4.57;3.08;;;7.50;99.90;;;;;;5144433;27;20202;-37
2021/05/08 10:15:18;;;;;;;6.20;4.13;;;7.40;99.90;;;;;;5145406;27;20199;-35
2021/05/08 10:17:50;;;;;;;4.10;3.72;;;7.50;99.90;;;;;;5144060;27;20199;-33
2021/05/08 10:20:21;;;;;;;7.25;3.17;;;7.40;99.90;;;;;;5145379;27;20634;-35
2021/05/08 10:22:54;;;;;;;6.63;4.10;;;7.40;99.90;;;;;;5145235;27;20587;-35
2021/05/08 10:25:26;;;;;;;4.50;4.10;;;7.40;99.90;;;;;;5145248;27;20196;-34
2021/05/08 10:27:56;;;;;;;3.80;3.50;;;7.40;99.90;;;;;;5142968;27;20291;-32
2021/05/08 10:30:31;;;;;;;4.90;3.88;;;7.40;99.90;;;;;;5144654;27;20228;-37
2021/05/08 10:33:01;;;;;;;5.40;3.83;;;7.40;99.90;;;;;;5144756;27;20198;-38
2021/05/08 10:35:43;;;;;;;3.40;3.10;;;7.40;99.90;;;;;;5144988;27;20278;-34
2021/05/08 10:38:20;;;;;;;4.80;3.30;;;7.40;99.90;;;;;;5139046;27;20226;-37
2021/05/08 10:40:56;;;;;;;3.55;2.92;;;7.40;99.90;;;;;;5144880;27;20195;-34
2021/05/08 10:43:49;;;;;;;4.85;3.35;;;7.30;99.90;;;;;;5143113;27;20276;-32
2021/05/08 10:46:20;;;;;;;4.53;3.25;;;7.20;99.90;;;;;;5140731;27;20195;-35
2021/05/08 10:49:18;;;;;;;3.47;3.17;;;7.20;99.90;;;;;;5145063;27;20262;-35
2021/05/08 10:51:58;;;;;;;3.70;3.40;;;7.10;99.90;;;;;;5144621;27;20195;-36
2021/05/08 10:54:55;;;;;;;5.10;3.65;;;7.00;99.90;;;;;;5144319;27;20195;-36
2021/05/08 10:57:28;;;;;;;5.25;4.25;;;6.90;99.90;;;;;;5142971;27;20263;-34
2021/05/08 11:00:31;;;;;;;4.22;3.85;;;6.90;99.90;;;;;;5144230;27;21077;-35
2021/05/08 11:03:03;;;;;;;4.88;4.00;;;6.80;99.90;;;;;;5131702;27;20202;-37
2021/05/08 11:05:35;;;;;;;4.65;3.30;;;6.80;99.90;;;;;;5144563;27;20225;-36
2021/05/08 11:08:41;;;;;;;3.50;3.17;;;6.80;99.90;;;;;;5144050;27;20183;-31
2021/05/08 11:11:13;;;;;;;4.47;3.20;;;6.70;99.90;;;;;;5144498;27;20191;-28
2021/05/08 11:14:01;;;;;;;3.83;3.20;;;6.70;99.90;;;;;;5143253;27;20616;-35
2021/05/08 11:16:32;;;;;;;4.90;3.75;;;6.50;99.90;;;;;;5142824;27;20199;-32
2021/05/08 11:19:04;;;;;;;5.47;5.07;;;6.50;99.90;;;;;;5144563;27;20268;-38
2021/05/08 11:22:06;;;;;;;6.03;3.83;;;6.50;99.90;;;;;;5143359;27;20207;-34
2021/05/08 11:24:38;;;;;;;4.35;3.95;;;6.50;99.90;;;;;;5141617;27;20224;-35
2021/05/08 11:27:25;;;;;;;4.63;3.72;;;6.50;99.90;;;;;;5142633;27;20191;-35
2021/05/08 11:30:07;;;;;;;4.53;3.70;;;6.50;99.90;;;;;;5141730;28;20665;-37
2021/05/08 11:32:47;;;;;;;4.38;3.72;;;6.50;99.90;;;;;;5144083;28;20199;-36
2021/05/08 11:35:27;;;;;;;4.30;3.38;;;6.40;99.90;;;;;;5144568;28;20285;-33
2021/05/08 11:38:21;;;;;;;6.75;3.80;;;6.40;99.90;;;;;;5137688;28;20199;-37
2021/05/08 11:40:51;;;;;;;4.32;3.92;;;6.40;99.90;;;;;;5126834;28;20224;-38
2021/05/08 11:43:26;;;;;;;5.90;3.78;;;6.30;99.90;;;;;;5143371;28;20248;-34
2021/05/08 11:46:00;;;;;;;7.90;4.30;;;6.20;99.90;;;;;;5144404;28;20199;-38
2021/05/08 11:48:29;;;;;;;3.65;3.35;;;6.20;99.90;;;;;;5142910;28;20211;-34
2021/05/08 11:51:02;;;;;;;3.90;3.25;;;6.10;99.90;;;;;;5144020;28;20191;-32
2021/05/08 11:53:32;;;;;;;4.10;3.70;;;6.10;99.90;;;;;;5143684;28;20188;-34
2021/05/08 11:56:02;;;;;;;3.40;3.10;;;6.20;99.90;;;;;;5143951;28;20268;-36
2021/05/08 11:58:32;;;;;;;3.85;3.55;;;6.10;99.90;;;;;;5142401;28;20235;-34
2021/05/08 12:01:03;;;;;;;6.95;4.28;;;6.10;99.90;;;;;;5142905;28;20252;-35
2021/05/08 12:03:33;;;;;;;4.75;4.35;;;6.10;99.90;;;;;;5142436;28;20710;-32
2021/05/08 12:06:04;;;;;;;5.38;4.18;;;6.10;99.90;;;;;;5144435;28;20248;-36
2021/05/08 12:08:34;;;;;;;5.82;5.00;;;6.00;99.90;;;;;;5142372;28;20203;-31
2021/05/08 12:11:04;;;;;;;4.30;3.92;;;6.00;99.90;;;;;;5142792;28;20255;-32
2021/05/08 12:13:34;;;;;;;5.32;4.03;;;5.90;99.90;;;;;;5141910;28;20354;-31
2021/05/08 12:16:07;;;;;;;4.38;3.90;;;5.90;99.90;;;;;;5143807;28;20203;-37
2021/05/08 12:18:37;;;;;;;4.47;4.03;;;5.80;99.90;;;;;;5143040;28;20331;-37
2021/05/08 12:21:09;;;;;;;5.72;3.63;;;5.80;99.90;;;;;;5143517;28;20217;-36
2021/05/08 12:23:39;;;;;;;6.47;4.13;;;5.60;99.90;;;;;;5143162;28;20195;-37
2021/05/08 12:26:11;;;;;;;4.47;4.07;;;5.70;99.90;;;;;;5142617;28;20234;-35
2021/05/08 12:28:42;;;;;;;4.93;4.43;;;5.80;99.90;;;;;;5145070;27;20510;-35
2021/05/08 12:31:24;;;;;;;4.40;4.00;;;5.80;99.90;;;;;;5147432;27;20203;-32
2021/05/08 12:33:55;;;;;;;6.80;4.45;;;5.90;99.90;;;;;;5147806;27;20187;-34
2021/05/08 12:36:26;;;;;;;7.93;4.90;;;5.80;99.90;;;;;;5147431;27;20192;-35
2021/05/08 12:39:16;;;;;;;9.77;4.60;;;5.90;99.90;;;;;;5145590;27;20272;-36
2021/05/08 12:41:53;;;;;;;5.22;4.50;;;5.90;99.90;;;;;;5145698;27;20199;-35
2021/05/08 12:44:32;;;;;;;6.07;4.00;;;5.90;99.90;;;;;;5146844;27;20574;-32
2021/05/08 12:47:15;;;;;;;5.07;4.55;;;5.90;99.90;;;;;;5146197;27;20216;-35
2021/05/08 12:50:07;;;;;;;6.57;4.30;;;5.90;99.90;;;;;;5138510;27;20199;-31
2021/05/08 12:52:39;;;;;;;5.28;4.18;;;5.90;99.90;;;;;;5135058;27;20204;-34
2021/05/08 12:55:22;;;;;;;6.78;4.47;;;5.80;99.90;;;;;;5146638;27;20183;-31
2021/05/08 12:57:54;;;;;;;5.40;4.47;;;5.80;99.90;;;;;;5143351;27;20240;-37
2021/05/08 13:00:24;;;;;;;5.18;4.55;;;5.80;99.90;;;;;;5146990;27;20244;-35
2021/05/08 13:02:56;;;;;;;4.70;4.30;;;5.70;99.90;;;;;;5145398;27;20195;-34
2021/05/08 13:05:26;;;;;;;6.88;3.90;;;5.80;99.90;;;;;;5146782;27;20219;-33
2021/05/08 13:08:03;;;;;;;7.93;5.28;;;5.70;99.90;;;;;;5145360;27;20195;-33
2021/05/08 13:10:34;;;;;;;5.47;4.40;;;5.70;99.90;;;;;;5146474;27;20228;-32
2021/05/08 13:13:05;;;;;;;4.07;3.75;;;5.70;99.90;;;;;;5145366;27;20207;-35
2021/05/08 13:15:36;;;;;;;8.68;4.47;;;5.70;99.90;;;;;;5146707;27;20250;-37
2021/05/08 13:18:10;;;;;;;5.72;3.97;;;5.80;99.90;;;;;;5145787;27;20234;-31